Redmond, WA (98074)

3:43 PM PST on February 08, 2016 (GMT -0800)
Sahalee | | Change Station
CLOSE
Current Station
Personal Weather Station
Location: Sammamish, WA
Elevation: 565 ft
Nearby Weather Stations

Elev 565 ft 47.63 °N, 122.05 °W | Updated 2 seconds ago

Partly Cloudy
Partly Cloudy
61.4 °F
Feels Like 61.4 °F
N
1.0
Wind Variable Wind from ENE
Gusts 4.0 mph

Today
High -- | Low -- °F
--% Chance of Precip.
Yesterday
High -- | Low -- °F
Precip. -- in
Pressure 30.38 in
Visibility 10.0 miles
Clouds Clear
Dew Point 48 °F
Humidity 61%
Rainfall 0.00 in
Snow Depth Not available.
7:25 AM 5:19 PM
New Moon, 0% visible
METAR KRNT 082253Z 31009KT 10SM CLR 15/07 A3036 RMK AO2 SLP285 T01500067
Pressure 30.38 in
Visibility 10.0 miles
Clouds Clear
Dew Point 48 °F
Humidity 61%
Rainfall 0.00 in
Snow Depth Not available.
7:25 AM 5:19 PM
New Moon, 0% visible
METAR KRNT 082253Z 31009KT 10SM CLR 15/07 A3036 RMK AO2 SLP285 T01500067

10-Day Weather Forecast

Almanac

Astronomy

Feb. 08, 2016 Rise Set
Actual Time
Civil Twilight
Nautical Twilight
Astronomical Twilight
Moon
Length of Visible Light
Length of Day
Tomorrow will be .
, % of the Moon is Illuminated

Today's Extremes

State Highs State Lows

Community

WunderPhotos

Upload Photos

1,891,527 photos uploaded!

WunderBlog® & News

Nearby

Air Quality

  Air Quality AQ Index Pollutant
Not available.

Snow Depth

Station Depth Elevation

Earthquake Activity

City Distance Mag. Time & Date
Minimum magnitude displayed is 2.5.

Coastal Water Temperatures

Place Temperature

Stations

Nearby Weather Stations

Station Location Temp. Windchill Dew Point Humidity Wind Precip. Elev Updated Type
                   

Watches & Warnings

There are currently no watches in effect.